Time;durP1;ratioP1;P1;durP2;ratioP2;P2;SDS_P1;SDS_P2;PMS_P1;PMS_P2;Temp;Humidity;BMP_temperature;BMP_pressure;BME280_temperature;BME280_humidity;BME280_pressure;Samples;Min_cycle;Max_cycle;Signal;HPM_P1;HPM_P2
2023/06/17 00:00:29;;;;;;;6.60;4.90;;;;;;;;;;5072551;28;20815;-58
2023/06/17 00:02:55;;;;;;;6.67;5.00;;;;;;;;;;5073441;28;20271;-57
2023/06/17 00:05:21;;;;;;;6.10;5.50;;;;;;;;;;5072862;28;20230;-58
2023/06/17 00:07:47;;;;;;;5.73;5.23;;;;;;;;;;5072993;28;20217;-58
2023/06/17 00:10:13;;;;;;;5.70;5.20;;;;;;;;;;5070884;28;20208;-58
2023/06/17 00:12:41;;;;;;;7.30;5.53;;;;;;;;;;5071380;28;20254;-57
2023/06/17 00:15:08;;;;;;;7.17;5.77;;;;;;;;;;5073052;28;20203;-57
2023/06/17 00:17:34;;;;;;;5.90;5.40;;;;;;;;;;5073118;28;20208;-58
2023/06/17 00:20:07;;;;;;;7.33;4.97;;;;;;;;;;5072957;28;20293;-57
2023/06/17 00:22:34;;;;;;;5.43;5.03;;;;;;;;;;5072814;28;20211;-58
2023/06/17 00:25:00;;;;;;;6.00;5.50;;;;;;;;;;5072589;28;20729;-54
2023/06/17 00:27:26;;;;;;;5.80;5.30;;;;;;;;;;5072591;28;20199;-53
2023/06/17 00:29:53;;;;;;;5.83;5.33;;;;;;;;;;5072902;28;20203;-54
2023/06/17 00:32:19;;;;;;;5.93;5.33;;;;;;;;;;5072776;28;20206;-53
2023/06/17 00:34:46;;;;;;;5.60;5.10;;;;;;;;;;5072600;28;20231;-54
2023/06/17 00:37:12;;;;;;;5.60;5.10;;;;;;;;;;5072463;28;20196;-54
2023/06/17 00:39:38;;;;;;;7.90;5.33;;;;;;;;;;5072651;28;20253;-53
2023/06/17 00:42:04;;;;;;;6.20;5.37;;;;;;;;;;5072586;28;20203;-53
2023/06/17 00:44:30;;;;;;;5.73;5.23;;;;;;;;;;5072466;28;20307;-53
2023/06/17 00:46:57;;;;;;;5.77;5.23;;;;;;;;;;5072416;28;20227;-53
2023/06/17 00:49:26;;;;;;;5.80;5.30;;;;;;;;;;5072301;28;20205;-53
2023/06/17 00:51:53;;;;;;;6.10;5.60;;;;;;;;;;5071625;28;20200;-53
2023/06/17 00:54:19;;;;;;;6.63;6.07;;;;;;;;;;5072235;28;20608;-53
2023/06/17 00:56:45;;;;;;;6.00;5.50;;;;;;;;;;5072177;28;20200;-53
2023/06/17 00:59:11;;;;;;;6.60;5.60;;;;;;;;;;5071991;28;20215;-53
2023/06/17 01:01:37;;;;;;;6.30;5.70;;;;;;;;;;5072301;28;20227;-53
2023/06/17 01:04:06;;;;;;;5.57;5.17;;;;;;;;;;5072123;28;20269;-53
2023/06/17 01:06:35;;;;;;;6.17;5.30;;;;;;;;;;5072137;28;20208;-53
2023/06/17 01:09:02;;;;;;;5.83;5.33;;;;;;;;;;5071965;28;20199;-54
2023/06/17 01:11:30;;;;;;;6.30;5.70;;;;;;;;;;5071874;28;20533;-54
2023/06/17 01:13:56;;;;;;;6.17;5.57;;;;;;;;;;5072067;28;20211;-53
2023/06/17 01:16:23;;;;;;;6.23;5.23;;;;;;;;;;5071869;28;20208;-52
2023/06/17 01:18:52;;;;;;;5.80;5.30;;;;;;;;;;5071942;28;20703;-52
2023/06/17 01:21:22;;;;;;;6.87;5.80;;;;;;;;;;5071676;28;20215;-53
2023/06/17 01:23:52;;;;;;;6.20;5.70;;;;;;;;;;5071861;28;20235;-53
2023/06/17 01:26:21;;;;;;;6.30;5.70;;;;;;;;;;5071591;28;20288;-53
2023/06/17 01:28:48;;;;;;;6.87;5.70;;;;;;;;;;5071712;28;20717;-53
2023/06/17 01:31:18;;;;;;;8.03;5.40;;;;;;;;;;5071452;28;20199;-53
2023/06/17 01:33:46;;;;;;;5.67;5.17;;;;;;;;;;5071728;28;20260;-53
2023/06/17 01:36:14;;;;;;;6.07;5.57;;;;;;;;;;5071319;28;20191;-53
2023/06/17 01:38:43;;;;;;;7.30;6.50;;;;;;;;;;5071394;28;20571;-53
2023/06/17 01:41:10;;;;;;;7.10;6.37;;;;;;;;;;5071418;28;20808;-55
2023/06/17 01:43:40;;;;;;;7.20;6.50;;;;;;;;;;5071593;28;20207;-53
2023/06/17 01:46:07;;;;;;;6.93;6.33;;;;;;;;;;5071461;28;20670;-54
2023/06/17 01:48:33;;;;;;;8.10;7.13;;;;;;;;;;5071416;28;20270;-54
2023/06/17 01:50:59;;;;;;;7.20;6.50;;;;;;;;;;5071328;28;20191;-53
2023/06/17 01:53:25;;;;;;;7.23;6.07;;;;;;;;;;5071124;28;20566;-54
2023/06/17 01:55:51;;;;;;;7.33;6.57;;;;;;;;;;5071447;28;20196;-54
2023/06/17 01:58:17;;;;;;;7.10;6.50;;;;;;;;;;5071145;28;20203;-53
2023/06/17 02:00:45;;;;;;;7.00;6.50;;;;;;;;;;5071168;28;20227;-54
2023/06/17 02:03:11;;;;;;;7.87;7.13;;;;;;;;;;5071115;28;20597;-53
2023/06/17 02:05:37;;;;;;;7.53;6.83;;;;;;;;;;5071127;28;20263;-52
2023/06/17 02:08:04;;;;;;;7.43;6.67;;;;;;;;;;5071182;28;20199;-52
2023/06/17 02:10:30;;;;;;;7.23;6.63;;;;;;;;;;5071089;28;20694;-53
2023/06/17 02:12:56;;;;;;;8.30;7.27;;;;;;;;;;5071160;28;20210;-55
2023/06/17 02:15:22;;;;;;;8.13;7.43;;;;;;;;;;5071021;28;20192;-53
2023/06/17 02:17:51;;;;;;;7.53;6.83;;;;;;;;;;5071152;28;20199;-53
2023/06/17 02:20:18;;;;;;;7.33;6.63;;;;;;;;;;5070818;28;20632;-53
2023/06/17 02:22:44;;;;;;;7.27;6.73;;;;;;;;;;5070955;28;20502;-54
2023/06/17 02:25:09;;;;;;;7.90;7.10;;;;;;;;;;5070632;28;20275;-53
2023/06/17 02:27:35;;;;;;;8.23;7.43;;;;;;;;;;5071215;28;20199;-54
2023/06/17 02:30:01;;;;;;;8.43;7.67;;;;;;;;;;5070935;28;20556;-55
2023/06/17 02:32:28;;;;;;;9.00;8.20;;;;;;;;;;5070751;28;20655;-54
2023/06/17 02:34:57;;;;;;;9.17;8.37;;;;;;;;;;5070747;28;20691;-54
2023/06/17 02:37:23;;;;;;;8.83;8.03;;;;;;;;;;5070744;28;20203;-53
2023/06/17 02:39:49;;;;;;;8.40;7.50;;;;;;;;;;5070971;28;20211;-53
2023/06/17 02:42:15;;;;;;;9.33;8.53;;;;;;;;;;5070767;28;20551;-53
2023/06/17 02:44:41;;;;;;;8.03;7.33;;;;;;;;;;5070821;28;20265;-53
2023/06/17 02:47:07;;;;;;;8.67;7.77;;;;;;;;;;5070831;28;20230;-52
2023/06/17 02:49:33;;;;;;;10.50;9.50;;;;;;;;;;5070693;28;20202;-53
2023/06/17 02:52:00;;;;;;;10.20;9.27;;;;;;;;;;5069389;28;20569;-53
2023/06/17 02:54:26;;;;;;;10.30;9.30;;;;;;;;;;5070626;28;20685;-53
2023/06/17 02:56:52;;;;;;;9.83;8.93;;;;;;;;;;5070809;28;20196;-52
2023/06/17 02:59:18;;;;;;;11.27;10.20;;;;;;;;;;5070604;28;20284;-53
2023/06/17 03:01:44;;;;;;;10.13;9.20;;;;;;;;;;5070692;28;20290;-53
2023/06/17 03:04:11;;;;;;;12.47;10.30;;;;;;;;;;5070391;28;20262;-53
2023/06/17 03:06:40;;;;;;;12.03;10.83;;;;;;;;;;5070657;28;20286;-52
2023/06/17 03:09:08;;;;;;;12.00;10.10;;;;;;;;;;5070467;28;20346;-52
2023/06/17 03:11:34;;;;;;;13.40;12.03;;;;;;;;;;5070889;28;20195;-53
2023/06/17 03:14:00;;;;;;;12.23;11.03;;;;;;;;;;5070288;28;20253;-53
2023/06/17 03:16:28;;;;;;;14.57;12.27;;;;;;;;;;5073237;28;20207;-53
2023/06/17 03:18:54;;;;;;;11.70;10.40;;;;;;;;;;5073480;28;20661;-53
2023/06/17 03:21:20;;;;;;;12.20;10.90;;;;;;;;;;5073968;28;20238;-53
2023/06/17 03:23:48;;;;;;;12.53;10.37;;;;;;;;;;5073939;28;20669;-53
2023/06/17 03:26:16;;;;;;;10.83;9.83;;;;;;;;;;5073914;28;20251;-53
2023/06/17 03:28:42;;;;;;;14.03;11.27;;;;;;;;;;5073959;28;20227;-53
2023/06/17 03:31:08;;;;;;;14.53;12.30;;;;;;;;;;5073839;28;20207;-53
2023/06/17 03:33:34;;;;;;;14.70;11.53;;;;;;;;;;5073917;28;20192;-53
2023/06/17 03:36:00;;;;;;;15.70;11.80;;;;;;;;;;5073705;28;20202;-53
2023/06/17 03:38:26;;;;;;;16.20;12.50;;;;;;;;;;5073397;28;20570;-53
2023/06/17 03:40:52;;;;;;;16.40;13.90;;;;;;;;;;5073814;28;20223;-53
2023/06/17 03:43:19;;;;;;;17.50;14.40;;;;;;;;;;5073664;28;20199;-53
2023/06/17 03:45:45;;;;;;;17.10;13.93;;;;;;;;;;5073636;28;20249;-53
2023/06/17 03:48:11;;;;;;;20.27;15.23;;;;;;;;;;5073345;28;20207;-53
2023/06/17 03:50:37;;;;;;;16.77;14.97;;;;;;;;;;5073595;28;20202;-53
2023/06/17 03:53:03;;;;;;;24.87;16.87;;;;;;;;;;5073607;28;20207;-53
2023/06/17 03:55:29;;;;;;;21.93;16.10;;;;;;;;;;5073324;28;20195;-54
2023/06/17 03:57:56;;;;;;;20.33;14.93;;;;;;;;;;5073366;28;20208;-54
2023/06/17 04:00:23;;;;;;;23.43;15.93;;;;;;;;;;5073352;28;20232;-54
2023/06/17 04:02:49;;;;;;;17.40;14.37;;;;;;;;;;5073567;28;20567;-54
2023/06/17 04:05:17;;;;;;;17.40;14.30;;;;;;;;;;5073039;28;20222;-54
2023/06/17 04:07:43;;;;;;;17.37;13.90;;;;;;;;;;5073150;28;20270;-54
2023/06/17 04:10:09;;;;;;;21.77;15.17;;;;;;;;;;5073097;28;20196;-53
2023/06/17 04:12:37;;;;;;;15.60;14.00;;;;;;;;;;5073424;28;20257;-53
2023/06/17 04:15:04;;;;;;;18.07;14.27;;;;;;;;;;5073165;28;20195;-53
2023/06/17 04:17:31;;;;;;;16.50;14.10;;;;;;;;;;5072932;28;20203;-53
2023/06/17 04:20:04;;;;;;;19.80;15.87;;;;;;;;;;5072927;28;20608;-53
2023/06/17 04:22:30;;;;;;;16.33;14.37;;;;;;;;;;5072827;28;20250;-53
2023/06/17 04:24:57;;;;;;;16.90;14.47;;;;;;;;;;5072660;28;20246;-52
2023/06/17 04:27:23;;;;;;;15.83;13.63;;;;;;;;;;5071681;28;20211;-52
2023/06/17 04:29:49;;;;;;;17.53;14.67;;;;;;;;;;5072950;28;20195;-53
2023/06/17 04:32:15;;;;;;;15.43;13.53;;;;;;;;;;5072571;28;20204;-53
2023/06/17 04:34:47;;;;;;;16.10;14.20;;;;;;;;;;5072725;28;20199;-53
2023/06/17 04:37:14;;;;;;;18.00;14.83;;;;;;;;;;5072591;28;20622;-53
2023/06/17 04:39:40;;;;;;;18.53;15.77;;;;;;;;;;5072557;28;20227;-53
2023/06/17 04:42:07;;;;;;;17.87;15.13;;;;;;;;;;5072616;28;20195;-53
2023/06/17 04:44:33;;;;;;;18.30;14.93;;;;;;;;;;5072643;28;20249;-53
2023/06/17 04:46:59;;;;;;;17.17;13.07;;;;;;;;;;5072456;28;20196;-53
2023/06/17 04:49:26;;;;;;;17.53;14.23;;;;;;;;;;5072224;28;20188;-53
2023/06/17 04:51:54;;;;;;;17.60;15.70;;;;;;;;;;5072329;28;20203;-53
2023/06/17 04:54:20;;;;;;;14.57;12.77;;;;;;;;;;5072306;28;20227;-53
2023/06/17 04:56:48;;;;;;;17.20;14.93;;;;;;;;;;5072281;28;20215;-53
2023/06/17 04:59:14;;;;;;;15.57;13.97;;;;;;;;;;5071980;28;20185;-53
2023/06/17 05:01:40;;;;;;;17.07;13.70;;;;;;;;;;5072039;28;20199;-53
2023/06/17 05:04:07;;;;;;;17.30;15.50;;;;;;;;;;5072086;28;20244;-53
2023/06/17 05:06:33;;;;;;;17.67;15.80;;;;;;;;;;5071910;28;20203;-53
2023/06/17 05:09:00;;;;;;;17.03;14.77;;;;;;;;;;5071951;28;20210;-53
2023/06/17 05:11:26;;;;;;;18.37;14.83;;;;;;;;;;5071793;28;20203;-54
2023/06/17 05:13:52;;;;;;;19.67;13.87;;;;;;;;;;5071976;28;20681;-53
2023/06/17 05:16:18;;;;;;;16.83;14.90;;;;;;;;;;5071864;28;20203;-54
2023/06/17 05:18:44;;;;;;;16.20;13.70;;;;;;;;;;5072064;28;20678;-53
2023/06/17 05:21:10;;;;;;;14.43;12.90;;;;;;;;;;5071646;28;20638;-54
2023/06/17 05:23:36;;;;;;;15.30;13.70;;;;;;;;;;5071945;28;20716;-53
2023/06/17 05:26:04;;;;;;;15.57;13.97;;;;;;;;;;5071501;28;20227;-53
2023/06/17 05:28:31;;;;;;;14.30;12.57;;;;;;;;;;5071406;28;20685;-53
2023/06/17 05:30:57;;;;;;;15.67;13.20;;;;;;;;;;5071597;28;20223;-53
2023/06/17 05:33:24;;;;;;;15.50;13.77;;;;;;;;;;5071389;28;20669;-54
2023/06/17 05:35:50;;;;;;;16.37;13.17;;;;;;;;;;5071605;28;20204;-54
2023/06/17 05:38:16;;;;;;;16.33;14.73;;;;;;;;;;5071305;28;20235;-53
2023/06/17 05:40:42;;;;;;;16.63;12.93;;;;;;;;;;5071333;28;20425;-53
2023/06/17 05:43:09;;;;;;;15.07;13.63;;;;;;;;;;5071485;28;20257;-54
2023/06/17 05:45:35;;;;;;;16.37;14.37;;;;;;;;;;5071435;28;20251;-54
2023/06/17 05:48:01;;;;;;;15.10;12.63;;;;;;;;;;5071316;28;20199;-54
2023/06/17 05:50:27;;;;;;;15.83;13.90;;;;;;;;;;5071404;28;20193;-54
2023/06/17 05:52:53;;;;;;;14.13;12.63;;;;;;;;;;5071281;28;20720;-54
2023/06/17 05:55:19;;;;;;;14.13;12.83;;;;;;;;;;5071395;28;20195;-54
2023/06/17 05:57:45;;;;;;;15.43;12.47;;;;;;;;;;5071318;28;20255;-54
2023/06/17 06:00:14;;;;;;;14.40;12.97;;;;;;;;;;5071018;28;20322;-54
2023/06/17 06:02:40;;;;;;;15.70;14.10;;;;;;;;;;5071083;28;20629;-54
2023/06/17 06:05:07;;;;;;;14.53;13.07;;;;;;;;;;5071244;28;20308;-54
2023/06/17 06:07:33;;;;;;;18.90;13.50;;;;;;;;;;5071090;28;20647;-54
2023/06/17 06:09:59;;;;;;;13.77;12.43;;;;;;;;;;5071175;28;20408;-54
2023/06/17 06:12:25;;;;;;;15.10;13.63;;;;;;;;;;5070904;28;20204;-54
2023/06/17 06:14:53;;;;;;;13.67;12.27;;;;;;;;;;5071221;28;20191;-55
2023/06/17 06:17:21;;;;;;;13.90;11.90;;;;;;;;;;5071084;28;20232;-55
2023/06/17 06:19:47;;;;;;;12.60;11.30;;;;;;;;;;5070867;28;20263;-59
2023/06/17 06:22:13;;;;;;;12.43;11.10;;;;;;;;;;5071178;28;20188;-58
2023/06/17 06:24:39;;;;;;;15.53;12.13;;;;;;;;;;5070986;28;20260;-58
2023/06/17 06:27:05;;;;;;;13.00;11.47;;;;;;;;;;5071171;28;20708;-59
2023/06/17 06:29:31;;;;;;;14.63;13.13;;;;;;;;;;5070884;28;20199;-58
2023/06/17 06:31:57;;;;;;;15.80;13.77;;;;;;;;;;5070854;28;20591;-58
2023/06/17 06:34:24;;;;;;;12.20;10.90;;;;;;;;;;5070911;28;20195;-58
2023/06/17 06:36:50;;;;;;;13.93;12.53;;;;;;;;;;5071159;28;20690;-58
2023/06/17 06:39:16;;;;;;;13.90;12.50;;;;;;;;;;5070475;28;20209;-58
2023/06/17 06:41:42;;;;;;;12.70;11.37;;;;;;;;;;5070917;28;20605;-58
2023/06/17 06:44:08;;;;;;;13.10;11.77;;;;;;;;;;5071054;28;20202;-58
2023/06/17 06:46:34;;;;;;;15.17;13.40;;;;;;;;;;5070751;28;20620;-58
2023/06/17 06:49:00;;;;;;;13.10;11.67;;;;;;;;;;5070592;28;20209;-58
2023/06/17 06:51:28;;;;;;;13.40;11.80;;;;;;;;;;5074160;28;20200;-58
2023/06/17 06:53:54;;;;;;;12.87;11.57;;;;;;;;;;5074650;28;20281;-58
2023/06/17 06:56:19;;;;;;;12.40;9.50;;;;;;;;;;5074596;28;20724;-58
2023/06/17 06:58:46;;;;;;;11.03;9.87;;;;;;;;;;5074415;28;20199;-57
2023/06/17 07:01:13;;;;;;;13.30;10.60;;;;;;;;;;5074372;28;20233;-58
2023/06/17 07:03:39;;;;;;;12.50;11.20;;;;;;;;;;5074188;28;20195;-58
2023/06/17 07:06:05;;;;;;;10.93;9.83;;;;;;;;;;5074281;28;20216;-58
2023/06/17 07:08:33;;;;;;;12.23;9.57;;;;;;;;;;5074155;28;20206;-58
2023/06/17 07:10:59;;;;;;;10.50;9.33;;;;;;;;;;5074302;28;20207;-58
2023/06/17 07:13:25;;;;;;;17.30;11.00;;;;;;;;;;5074088;28;20671;-58
2023/06/17 07:15:51;;;;;;;10.73;9.73;;;;;;;;;;5074277;28;20264;-58
2023/06/17 07:18:17;;;;;;;12.63;11.33;;;;;;;;;;5074087;28;20194;-58
2023/06/17 07:20:43;;;;;;;11.30;10.13;;;;;;;;;;5074000;28;20226;-58
2023/06/17 07:23:09;;;;;;;12.00;10.80;;;;;;;;;;5074074;28;20198;-57
2023/06/17 07:25:36;;;;;;;11.10;10.00;;;;;;;;;;5073815;28;20321;-58
2023/06/17 07:28:03;;;;;;;13.20;11.07;;;;;;;;;;5074025;28;20210;-57
2023/06/17 07:30:29;;;;;;;14.43;10.80;;;;;;;;;;5073807;28;20202;-58
2023/06/17 07:32:55;;;;;;;11.17;10.07;;;;;;;;;;5073747;28;20203;-60
2023/06/17 07:35:21;;;;;;;15.00;11.40;;;;;;;;;;5073760;28;20203;-61
2023/06/17 07:37:47;;;;;;;11.23;10.07;;;;;;;;;;5073697;28;20665;-56
2023/06/17 07:40:13;;;;;;;10.23;9.17;;;;;;;;;;5073561;28;20241;-56
2023/06/17 07:42:44;;;;;;;12.37;10.23;;;;;;;;;;5073796;28;20571;-56
2023/06/17 07:45:10;;;;;;;14.87;12.10;;;;;;;;;;5073611;28;20669;-58
2023/06/17 07:47:36;;;;;;;9.97;8.97;;;;;;;;;;5063444;28;20282;-59
2023/06/17 07:50:04;;;;;;;12.97;9.93;;;;;;;;;;5073079;28;20234;-59
2023/06/17 07:52:31;;;;;;;11.47;10.30;;;;;;;;;;5073118;28;20760;-59
2023/06/17 07:54:57;;;;;;;11.57;10.57;;;;;;;;;;5069675;28;20274;-59
2023/06/17 07:57:23;;;;;;;12.87;11.17;;;;;;;;;;5073310;28;20192;-59
2023/06/17 07:59:51;;;;;;;12.97;11.20;;;;;;;;;;5073383;28;20223;-56
2023/06/17 08:02:17;;;;;;;15.97;12.67;;;;;;;;;;5072823;28;20205;-56
2023/06/17 08:04:43;;;;;;;10.37;9.27;;;;;;;;;;5073076;28;20306;-56
2023/06/17 08:07:10;;;;;;;13.30;11.57;;;;;;;;;;5073199;28;20583;-57
2023/06/17 08:09:36;;;;;;;14.13;12.20;;;;;;;;;;5073411;28;20231;-56
2023/06/17 08:12:02;;;;;;;11.83;10.63;;;;;;;;;;5073151;28;20227;-57
2023/06/17 08:14:28;;;;;;;14.00;12.60;;;;;;;;;;5072954;28;20672;-57
2023/06/17 08:16:56;;;;;;;13.43;12.07;;;;;;;;;;5072994;28;20222;-57
2023/06/17 08:19:22;;;;;;;16.00;13.70;;;;;;;;;;5072965;28;20257;-56
2023/06/17 08:21:49;;;;;;;15.80;14.20;;;;;;;;;;5072859;28;20223;-57
2023/06/17 08:24:18;;;;;;;16.73;14.83;;;;;;;;;;5072502;28;20235;-57
2023/06/17 08:26:44;;;;;;;16.87;15.13;;;;;;;;;;5072902;28;20225;-57
2023/06/17 08:29:10;;;;;;;19.77;16.13;;;;;;;;;;5072650;28;20654;-57
2023/06/17 08:31:36;;;;;;;14.80;13.27;;;;;;;;;;5072823;28;20247;-57
2023/06/17 08:34:03;;;;;;;16.80;15.00;;;;;;;;;;5072642;28;20200;-56
2023/06/17 08:36:29;;;;;;;14.43;13.03;;;;;;;;;;5072329;28;20203;-56
2023/06/17 08:38:55;;;;;;;14.37;12.97;;;;;;;;;;5072512;28;20590;-57
2023/06/17 08:41:21;;;;;;;16.13;14.43;;;;;;;;;;5072363;28;20238;-56
2023/06/17 08:43:51;;;;;;;15.87;14.27;;;;;;;;;;5072547;28;20201;-57
2023/06/17 08:46:19;;;;;;;18.07;16.27;;;;;;;;;;5072300;28;20202;-57
2023/06/17 08:48:46;;;;;;;17.50;15.37;;;;;;;;;;5072408;28;20208;-57
2023/06/17 08:51:13;;;;;;;18.23;16.27;;;;;;;;;;5072196;28;20199;-57
2023/06/17 08:53:40;;;;;;;18.00;16.23;;;;;;;;;;5072300;28;20284;-57
2023/06/17 08:56:06;;;;;;;22.20;19.83;;;;;;;;;;5072216;28;20598;-57
2023/06/17 08:58:37;;;;;;;21.00;18.80;;;;;;;;;;5072085;28;20242;-57
2023/06/17 09:01:03;;;;;;;20.73;18.53;;;;;;;;;;5072165;28;20231;-57
2023/06/17 09:03:29;;;;;;;22.60;20.40;;;;;;;;;;5071842;28;20310;-57
2023/06/17 09:05:55;;;;;;;21.83;19.63;;;;;;;;;;5071961;28;20215;-57
2023/06/17 09:08:23;;;;;;;25.30;22.10;;;;;;;;;;5072021;28;20611;-57
2023/06/17 09:10:49;;;;;;;22.07;19.80;;;;;;;;;;5072101;28;20199;-57
2023/06/17 09:13:15;;;;;;;20.17;18.03;;;;;;;;;;5071241;28;20737;-57
2023/06/17 09:15:42;;;;;;;21.87;19.67;;;;;;;;;;5071762;28;20192;-57
2023/06/17 09:18:08;;;;;;;20.40;18.13;;;;;;;;;;5071906;28;20195;-57
2023/06/17 09:20:34;;;;;;;21.83;18.13;;;;;;;;;;5071487;28;20226;-56
2023/06/17 09:23:00;;;;;;;20.23;18.13;;;;;;;;;;5071648;28;20646;-56
2023/06/17 09:25:28;;;;;;;18.33;16.47;;;;;;;;;;5071294;28;20231;-56
2023/06/17 09:27:54;;;;;;;17.87;16.07;;;;;;;;;;5071689;28;20215;-56
2023/06/17 09:30:22;;;;;;;21.17;17.97;;;;;;;;;;5071638;28;20291;-56
2023/06/17 09:32:52;;;;;;;20.40;15.73;;;;;;;;;;5071729;28;20195;-56
2023/06/17 09:35:18;;;;;;;17.80;15.10;;;;;;;;;;5071391;28;20571;-57
2023/06/17 09:37:44;;;;;;;17.97;16.17;;;;;;;;;;5071456;28;20282;-56
2023/06/17 09:40:11;;;;;;;13.77;12.40;;;;;;;;;;5071075;28;20703;-56
2023/06/17 09:42:38;;;;;;;13.93;12.50;;;;;;;;;;5071388;28;20669;-56
2023/06/17 09:45:08;;;;;;;15.87;14.03;;;;;;;;;;5071472;28;20310;-56
2023/06/17 09:47:34;;;;;;;14.77;13.27;;;;;;;;;;5071223;28;20196;-56
2023/06/17 09:50:06;;;;;;;12.40;11.17;;;;;;;;;;5071151;28;20196;-56
2023/06/17 09:52:35;;;;;;;12.47;11.27;;;;;;;;;;5071240;28;20200;-56
2023/06/17 09:55:02;;;;;;;16.00;12.93;;;;;;;;;;5071253;28;20197;-56
2023/06/17 09:57:32;;;;;;;11.77;10.57;;;;;;;;;;5071056;28;20224;-56
2023/06/17 10:00:00;;;;;;;11.20;10.20;;;;;;;;;;5070955;28;20268;-56
2023/06/17 10:02:26;;;;;;;14.47;11.63;;;;;;;;;;5070992;28;20202;-56
2023/06/17 10:04:53;;;;;;;10.50;9.43;;;;;;;;;;5071152;28;20222;-56
2023/06/17 10:07:20;;;;;;;11.80;10.13;;;;;;;;;;5071133;28;20672;-56
2023/06/17 10:09:46;;;;;;;9.50;8.50;;;;;;;;;;5071104;28;20199;-56
2023/06/17 10:12:12;;;;;;;11.03;8.87;;;;;;;;;;5071015;28;20204;-57
2023/06/17 10:14:39;;;;;;;13.37;12.03;;;;;;;;;;5071050;28;20219;-56
2023/06/17 10:17:10;;;;;;;12.03;10.83;;;;;;;;;;5071197;28;20199;-56
2023/06/17 10:19:38;;;;;;;12.80;11.33;;;;;;;;;;5070835;28;20730;-58
2023/06/17 10:22:06;;;;;;;11.30;10.17;;;;;;;;;;5071336;28;20207;-55
2023/06/17 10:24:32;;;;;;;11.83;9.73;;;;;;;;;;5071306;28;20266;-56
2023/06/17 10:27:03;;;;;;;9.47;8.20;;;;;;;;;;5075083;28;20631;-59
2023/06/17 10:29:29;;;;;;;10.07;9.10;;;;;;;;;;5074850;28;20239;-54
2023/06/17 10:31:55;;;;;;;10.30;9.27;;;;;;;;;;5074886;28;20593;-54
2023/06/17 10:34:22;;;;;;;10.80;8.37;;;;;;;;;;5074884;28;20197;-56
2023/06/17 10:36:49;;;;;;;9.27;8.33;;;;;;;;;;5075071;28;20200;-57
2023/06/17 10:39:15;;;;;;;9.17;8.27;;;;;;;;;;5074780;28;20207;-56
2023/06/17 10:41:59;;;;;;;12.10;10.67;;;;;;;;;;5074691;28;20228;-56
2023/06/17 10:44:39;;;;;;;9.63;8.73;;;;;;;;;;5074684;28;20213;-56
2023/06/17 10:47:15;;;;;;;10.20;9.27;;;;;;;;;;5074892;28;20201;-59
2023/06/17 10:49:42;;;;;;;11.33;9.83;;;;;;;;;;5074544;28;20201;-61
2023/06/17 10:52:12;;;;;;;12.03;10.83;;;;;;;;;;5074562;28;20672;-61
2023/06/17 10:54:43;;;;;;;10.03;9.13;;;;;;;;;;5074580;28;20198;-60
2023/06/17 10:57:09;;;;;;;9.40;8.50;;;;;;;;;;5074446;28;20190;-62
2023/06/17 10:59:35;;;;;;;9.87;8.40;;;;;;;;;;5074514;28;20255;-61
2023/06/17 11:02:01;;;;;;;8.97;7.47;;;;;;;;;;5074308;28;20697;-60
2023/06/17 11:04:28;;;;;;;10.07;8.73;;;;;;;;;;5074062;28;20273;-59
2023/06/17 11:06:55;;;;;;;9.67;8.77;;;;;;;;;;5074326;28;20224;-61
2023/06/17 11:09:25;;;;;;;9.93;9.03;;;;;;;;;;5074372;28;20227;-60
2023/06/17 11:11:51;;;;;;;12.03;9.60;;;;;;;;;;5074414;28;20567;-60
2023/06/17 11:14:18;;;;;;;9.17;8.27;;;;;;;;;;5074156;28;20222;-61
2023/06/17 11:16:44;;;;;;;8.67;7.83;;;;;;;;;;5074072;28;20201;-61
2023/06/17 11:19:10;;;;;;;11.87;9.23;;;;;;;;;;5073696;28;20804;-55
2023/06/17 11:21:37;;;;;;;10.00;8.43;;;;;;;;;;5074086;28;20220;-52
2023/06/17 11:24:04;;;;;;;14.20;9.53;;;;;;;;;;5073963;28;20285;-51
2023/06/17 11:26:30;;;;;;;12.47;9.47;;;;;;;;;;5073829;28;20230;-52
2023/06/17 11:28:57;;;;;;;9.57;8.20;;;;;;;;;;5073901;28;20670;-54
2023/06/17 11:31:25;;;;;;;11.93;8.10;;;;;;;;;;5073837;28;20286;-52
2023/06/17 11:33:57;;;;;;;11.50;9.30;;;;;;;;;;5074120;28;20201;-54
2023/06/17 11:36:23;;;;;;;11.40;10.20;;;;;;;;;;5073068;28;20200;-53
2023/06/17 11:38:50;;;;;;;8.13;7.43;;;;;;;;;;5073932;28;20195;-53
2023/06/17 11:41:18;;;;;;;9.40;8.20;;;;;;;;;;5073453;28;20229;-52
2023/06/17 11:43:44;;;;;;;9.73;6.90;;;;;;;;;;5073528;28;20294;-54
2023/06/17 11:46:10;;;;;;;8.13;7.33;;;;;;;;;;5073537;28;20314;-54
2023/06/17 11:48:36;;;;;;;10.63;8.77;;;;;;;;;;5073519;28;20202;-54
2023/06/17 11:51:02;;;;;;;12.47;9.50;;;;;;;;;;5073417;28;20305;-53
2023/06/17 11:53:29;;;;;;;10.17;8.37;;;;;;;;;;5073397;28;20207;-54
2023/06/17 11:55:55;;;;;;;10.60;7.70;;;;;;;;;;5073453;28;20205;-53
2023/06/17 11:58:25;;;;;;;9.50;8.60;;;;;;;;;;5073487;28;20685;-54
2023/06/17 12:00:51;;;;;;;8.47;7.00;;;;;;;;;;5073505;28;20229;-53
2023/06/17 12:03:18;;;;;;;8.63;7.80;;;;;;;;;;5073555;28;20198;-55
2023/06/17 12:05:44;;;;;;;10.70;8.63;;;;;;;;;;5073052;28;20246;-54
2023/06/17 12:08:10;;;;;;;10.50;9.50;;;;;;;;;;5073200;28;20272;-54
2023/06/17 12:10:37;;;;;;;9.97;8.97;;;;;;;;;;5073196;28;20205;-54
2023/06/17 12:13:04;;;;;;;9.50;8.50;;;;;;;;;;5073320;28;20256;-54
2023/06/17 12:15:32;;;;;;;9.30;8.40;;;;;;;;;;5072889;28;20625;-54
2023/06/17 12:18:09;;;;;;;8.33;7.53;;;;;;;;;;5072756;28;20200;-54
2023/06/17 12:20:36;;;;;;;9.07;7.50;;;;;;;;;;5072564;28;20306;-54
2023/06/17 12:23:02;;;;;;;10.07;7.00;;;;;;;;;;5072975;28;20557;-54
2023/06/17 12:25:28;;;;;;;7.90;7.20;;;;;;;;;;5072634;28;20237;-54
2023/06/17 12:27:54;;;;;;;9.13;7.00;;;;;;;;;;5072861;28;20255;-54
2023/06/17 12:30:20;;;;;;;8.00;7.20;;;;;;;;;;5073005;28;20605;-54
2023/06/17 12:32:50;;;;;;;7.20;6.50;;;;;;;;;;5072836;28;20194;-54
2023/06/17 12:35:17;;;;;;;7.47;6.57;;;;;;;;;;5072572;28;20234;-53
2023/06/17 12:37:44;;;;;;;8.00;7.20;;;;;;;;;;5072625;28;20203;-53
2023/06/17 12:40:11;;;;;;;7.50;6.33;;;;;;;;;;5072313;28;20288;-54
2023/06/17 12:42:38;;;;;;;7.13;6.33;;;;;;;;;;5072518;28;20199;-53
2023/06/17 12:45:05;;;;;;;7.43;6.73;;;;;;;;;;5072745;28;20209;-53
2023/06/17 12:47:31;;;;;;;7.60;6.90;;;;;;;;;;5071451;28;20572;-53
2023/06/17 12:49:58;;;;;;;8.47;6.50;;;;;;;;;;5072308;28;20631;-53
2023/06/17 12:52:25;;;;;;;8.57;7.77;;;;;;;;;;5072148;28;20208;-53
2023/06/17 12:54:57;;;;;;;6.57;5.97;;;;;;;;;;5072468;28;20205;-53
2023/06/17 12:57:23;;;;;;;7.90;7.10;;;;;;;;;;5072261;28;20195;-53
2023/06/17 12:59:49;;;;;;;8.87;6.83;;;;;;;;;;5072305;28;20735;-53
2023/06/17 13:02:15;;;;;;;9.47;6.43;;;;;;;;;;5072086;28;20216;-53
2023/06/17 13:04:41;;;;;;;7.07;6.23;;;;;;;;;;5071827;28;20212;-54
2023/06/17 13:07:09;;;;;;;7.23;6.50;;;;;;;;;;5072166;28;20206;-53
2023/06/17 13:09:35;;;;;;;6.93;6.20;;;;;;;;;;5072046;28;20626;-53
2023/06/17 13:12:01;;;;;;;6.37;5.87;;;;;;;;;;5071990;28;20616;-53
2023/06/17 13:14:27;;;;;;;6.17;5.57;;;;;;;;;;5071772;28;20746;-53
2023/06/17 13:16:54;;;;;;;6.43;5.73;;;;;;;;;;5071894;28;20206;-53
2023/06/17 13:19:20;;;;;;;7.37;6.20;;;;;;;;;;5071589;28;20291;-53
2023/06/17 13:21:46;;;;;;;7.70;6.37;;;;;;;;;;5071711;28;20227;-54
2023/06/17 13:24:14;;;;;;;7.03;5.47;;;;;;;;;;5071545;28;20748;-53
2023/06/17 13:26:40;;;;;;;7.93;5.43;;;;;;;;;;5071554;28;20213;-53
2023/06/17 13:29:06;;;;;;;6.57;5.53;;;;;;;;;;5071763;28;20215;-53
2023/06/17 13:31:32;;;;;;;7.43;5.70;;;;;;;;;;5071463;28;20242;-53
2023/06/17 13:33:58;;;;;;;6.03;5.40;;;;;;;;;;5071356;28;20203;-53
2023/06/17 13:36:25;;;;;;;5.40;4.90;;;;;;;;;;5071483;28;20204;-53
2023/06/17 13:38:51;;;;;;;7.00;5.73;;;;;;;;;;5071663;28;20250;-53
2023/06/17 13:41:18;;;;;;;5.27;4.77;;;;;;;;;;5071343;28;20286;-53
2023/06/17 13:43:44;;;;;;;5.63;5.03;;;;;;;;;;5071637;28;20261;-53
2023/06/17 13:46:10;;;;;;;5.43;4.90;;;;;;;;;;5071383;28;20201;-53
2023/06/17 13:48:36;;;;;;;4.50;4.10;;;;;;;;;;5071317;28;20206;-53
2023/06/17 13:51:03;;;;;;;6.23;4.70;;;;;;;;;;5071411;28;20204;-53
2023/06/17 13:53:30;;;;;;;5.07;4.10;;;;;;;;;;5071477;28;20200;-54
2023/06/17 13:55:57;;;;;;;4.73;4.33;;;;;;;;;;5071252;28;20193;-54
2023/06/17 13:58:24;;;;;;;10.57;5.10;;;;;;;;;;5071067;28;20567;-54
2023/06/17 14:00:50;;;;;;;5.37;4.70;;;;;;;;;;5071415;28;20232;-53
2023/06/17 14:03:16;;;;;;;5.70;4.67;;;;;;;;;;5071137;28;20210;-53
2023/06/17 14:05:43;;;;;;;4.97;3.90;;;;;;;;;;5070930;28;20658;-52
2023/06/17 14:08:09;;;;;;;5.33;4.20;;;;;;;;;;5071158;28;20198;-53
2023/06/17 14:10:35;;;;;;;5.37;4.33;;;;;;;;;;5071184;28;20198;-52
2023/06/17 14:13:01;;;;;;;6.90;4.30;;;;;;;;;;5071150;28;20196;-52
2023/06/17 14:15:28;;;;;;;5.27;4.37;;;;;;;;;;5070985;28;20591;-52
2023/06/17 14:17:54;;;;;;;4.47;4.07;;;;;;;;;;5071084;28;20204;-53
2023/06/17 14:20:20;;;;;;;5.50;3.97;;;;;;;;;;5070965;28;20220;-55
2023/06/17 14:22:49;;;;;;;5.23;3.70;;;;;;;;;;5071091;28;20204;-53
2023/06/17 14:25:15;;;;;;;3.97;3.50;;;;;;;;;;5070836;28;20245;-53